createdAt,value
2019-05-17T00:00:27.401Z,99.90
2019-05-17T00:03:36.512Z,99.90
2019-05-17T00:06:47.464Z,99.90
2019-05-17T00:09:57.130Z,99.90
2019-05-17T00:13:07.568Z,99.90
2019-05-17T00:16:17.509Z,99.90
2019-05-17T00:19:26.436Z,99.90
2019-05-17T00:22:36.624Z,99.90
2019-05-17T00:25:47.004Z,99.90
2019-05-17T00:28:56.272Z,99.90
2019-05-17T00:32:06.493Z,99.90
2019-05-17T00:35:17.554Z,99.90
2019-05-17T00:38:27.423Z,99.90
2019-05-17T00:41:37.458Z,99.90
2019-05-17T00:44:47.363Z,99.90
2019-05-17T00:48:06.803Z,99.90
2019-05-17T00:51:27.432Z,99.90
2019-05-17T00:54:36.280Z,99.90
2019-05-17T00:57:47.241Z,99.90
2019-05-17T01:00:57.159Z,99.90
2019-05-17T01:04:06.889Z,99.90
2019-05-17T01:07:17.706Z,99.90
2019-05-17T01:10:27.206Z,99.90
2019-05-17T01:13:37.433Z,99.90
2019-05-17T01:16:47.490Z,99.90
2019-05-17T01:19:57.357Z,99.90
2019-05-17T01:23:07.719Z,99.90
2019-05-17T01:26:18.415Z,99.90
2019-05-17T01:29:26.941Z,99.90
2019-05-17T01:32:37.481Z,99.90
2019-05-17T01:35:46.589Z,99.90
2019-05-17T01:38:57.686Z,99.90
2019-05-17T01:42:06.796Z,99.90
2019-05-17T01:45:16.629Z,99.90
2019-05-17T01:48:36.544Z,99.90
2019-05-17T01:51:46.520Z,99.90
2019-05-17T01:54:57.139Z,99.90
2019-05-17T01:58:16.413Z,99.90
2019-05-17T02:01:27.409Z,99.90
2019-05-17T02:04:37.713Z,99.90
2019-05-17T02:07:46.762Z,99.90
2019-05-17T02:10:57.429Z,99.90
2019-05-17T02:14:06.966Z,99.90
2019-05-17T02:17:17.422Z,99.90
2019-05-17T02:20:27.552Z,99.90
2019-05-17T02:23:46.936Z,99.90
2019-05-17T02:26:57.104Z,99.90
2019-05-17T02:30:08.144Z,99.90
2019-05-17T02:33:17.771Z,99.90
2019-05-17T02:36:36.618Z,99.90
2019-05-17T02:39:58.314Z,99.90
2019-05-17T02:42:55.733Z,99.90
2019-05-17T02:46:04.513Z,99.90
2019-05-17T02:49:13.852Z,99.90
2019-05-17T02:52:23.074Z,99.90
2019-05-17T02:55:32.411Z,99.90
2019-05-17T02:58:43.918Z,99.90
2019-05-17T03:01:52.668Z,99.90
2019-05-17T03:05:03.943Z,99.90
2019-05-17T03:08:12.389Z,99.90
2019-05-17T03:11:22.709Z,99.90
2019-05-17T03:14:32.741Z,99.90
2019-05-17T03:17:43.452Z,99.90
2019-05-17T03:20:52.721Z,99.90
2019-05-17T03:24:03.503Z,99.90
2019-05-17T03:27:13.484Z,99.90
2019-05-17T03:30:25.801Z,99.90
2019-05-17T03:33:35.965Z,99.90
2019-05-17T03:36:56.379Z,99.90
2019-05-17T03:40:35.332Z,99.90
2019-05-17T03:43:25.459Z,99.90
2019-05-17T03:46:44.235Z,99.90
2019-05-17T03:49:53.198Z,99.90
2019-05-17T03:53:13.160Z,99.90
2019-05-17T03:56:22.536Z,99.90
2019-05-17T03:59:33.463Z,99.90
2019-05-17T04:02:44.511Z,99.90
2019-05-17T04:05:52.894Z,99.90
2019-05-17T04:09:13.847Z,99.90
2019-05-17T04:12:23.185Z,99.90
2019-05-17T04:15:32.855Z,99.90
2019-05-17T04:18:53.473Z,99.90
2019-05-17T04:22:03.496Z,99.90
2019-05-17T04:25:13.586Z,99.90
2019-05-17T04:28:23.205Z,99.90
2019-05-17T04:31:34.810Z,99.90
2019-05-17T04:34:43.722Z,99.90
2019-05-17T04:37:53.265Z,99.90
2019-05-17T04:41:41.303Z,99.90
2019-05-17T04:44:43.166Z,99.90
2019-05-17T04:47:52.843Z,99.90
2019-05-17T04:51:02.709Z,99.90
2019-05-17T04:54:13.714Z,99.90
2019-05-17T04:57:23.595Z,99.90
2019-05-17T05:00:33.955Z,99.90
2019-05-17T05:03:43.144Z,99.90
2019-05-17T05:07:03.101Z,99.90
2019-05-17T05:10:13.424Z,99.90
2019-05-17T05:13:22.873Z,99.90
2019-05-17T05:16:32.105Z,99.90
2019-05-17T05:19:53.118Z,99.90
2019-05-17T05:23:02.621Z,99.90
2019-05-17T05:26:12.049Z,99.90
2019-05-17T05:29:32.150Z,99.90
2019-05-17T05:32:42.612Z,99.90
2019-05-17T05:35:51.683Z,99.90
2019-05-17T05:39:02.416Z,99.90
2019-05-17T05:42:13.834Z,99.90
2019-05-17T05:45:22.777Z,99.90
2019-05-17T05:48:32.868Z,99.90
2019-05-17T05:51:42.534Z,99.90
2019-05-17T05:55:01.674Z,99.90
2019-05-17T05:58:12.115Z,99.90
2019-05-17T06:01:21.968Z,99.90
2019-05-17T06:04:31.839Z,99.90
2019-05-17T06:07:41.657Z,99.90
2019-05-17T06:11:02.197Z,99.90
2019-05-17T06:14:12.142Z,99.90
2019-05-17T06:17:21.634Z,99.90
2019-05-17T06:20:32.406Z,99.90
2019-05-17T06:23:53.314Z,99.90
2019-05-17T06:27:02.100Z,99.90
2019-05-17T06:30:23.064Z,99.90
2019-05-17T06:33:42.308Z,99.90
2019-05-17T06:37:02.317Z,99.90
2019-05-17T06:40:13.118Z,99.90
2019-05-17T06:43:21.901Z,99.90
2019-05-17T06:46:32.508Z,99.90
2019-05-17T06:49:42.455Z,99.90
2019-05-17T06:52:53.203Z,99.90
2019-05-17T06:56:03.002Z,99.90
2019-05-17T06:59:11.816Z,99.90
2019-05-17T07:02:20.519Z,99.90
2019-05-17T07:05:31.988Z,99.90
2019-05-17T07:08:55.196Z,99.90
2019-05-17T07:12:03.878Z,99.90
2019-05-17T07:15:12.981Z,99.90
2019-05-17T07:18:32.037Z,99.90
2019-05-17T07:21:40.688Z,99.90
2019-05-17T07:24:50.229Z,99.90
2019-05-17T07:28:00.444Z,99.90
2019-05-17T07:31:10.155Z,99.90
2019-05-17T07:34:19.999Z,99.90
2019-05-17T07:37:30.328Z,99.90
2019-05-17T07:40:39.881Z,99.90
2019-05-17T07:44:01.773Z,99.90
2019-05-17T07:47:10.399Z,99.90
2019-05-17T07:50:20.067Z,99.90
2019-05-17T07:53:30.699Z,99.90
2019-05-17T07:56:40.242Z,99.90
2019-05-17T07:59:59.980Z,99.90
2019-05-17T08:03:12.641Z,99.90
2019-05-17T08:06:19.849Z,99.90
2019-05-17T08:09:30.052Z,99.90
2019-05-17T08:12:40.565Z,99.90
2019-05-17T08:15:50.203Z,99.90
2019-05-17T08:19:09.769Z,99.90
2019-05-17T08:22:20.222Z,99.90
2019-05-17T08:25:30.492Z,99.90
2019-05-17T08:28:49.924Z,99.90
2019-05-17T08:32:00.353Z,99.90
2019-05-17T08:35:11.185Z,99.90
2019-05-17T08:38:19.936Z,99.90
2019-05-17T08:41:30.914Z,99.90
2019-05-17T08:44:40.071Z,99.90
2019-05-17T08:48:00.365Z,99.90
2019-05-17T08:51:10.775Z,99.90
2019-05-17T08:54:23.091Z,99.90
2019-05-17T08:57:32.880Z,99.70
2019-05-17T09:00:42.877Z,99.30
2019-05-17T09:03:52.073Z,99.30
2019-05-17T09:07:03.159Z,99.30
2019-05-17T09:10:11.129Z,99.00
2019-05-17T09:13:19.805Z,99.10
2019-05-17T09:16:31.206Z,99.50
2019-05-17T09:19:42.574Z,99.00
2019-05-17T09:22:51.289Z,98.30
2019-05-17T09:26:02.017Z,97.70
2019-05-17T09:29:10.906Z,96.80
2019-05-17T09:32:20.100Z,97.50
2019-05-17T09:35:30.020Z,97.90
2019-05-17T09:38:40.515Z,97.00
2019-05-17T09:41:50.261Z,97.40
2019-05-17T09:45:00.350Z,96.80
2019-05-17T09:48:10.228Z,96.60
2019-05-17T09:51:30.328Z,96.50
2019-05-17T09:54:45.134Z,96.40
2019-05-17T09:57:49.806Z,96.20
2019-05-17T10:01:01.072Z,94.60
2019-05-17T10:04:12.965Z,94.60
2019-05-17T10:07:20.809Z,94.90
2019-05-17T10:10:29.291Z,95.40
2019-05-17T10:13:37.895Z,95.50
2019-05-17T10:16:56.773Z,95.10
2019-05-17T10:20:06.122Z,94.50
2019-05-17T10:23:24.970Z,94.30
2019-05-17T10:26:33.585Z,93.80
2019-05-17T10:29:42.211Z,93.70
2019-05-17T10:32:50.899Z,93.20
2019-05-17T10:36:00.518Z,92.40
2019-05-17T10:39:10.111Z,92.70
2019-05-17T10:42:20.939Z,92.00
2019-05-17T10:45:30.485Z,91.10
2019-05-17T10:48:41.115Z,91.50
2019-05-17T10:51:49.594Z,91.20
2019-05-17T10:54:59.904Z,91.40
2019-05-17T10:58:09.974Z,91.20
2019-05-17T11:01:20.038Z,90.90
2019-05-17T11:04:28.759Z,91.50
2019-05-17T11:07:37.422Z,91.10
2019-05-17T11:10:46.089Z,91.30
2019-05-17T11:13:54.713Z,89.80
2019-05-17T11:17:03.509Z,89.60
2019-05-17T11:20:13.096Z,88.60
2019-05-17T11:23:21.626Z,87.00
2019-05-17T11:26:32.048Z,88.60
2019-05-17T11:29:40.574Z,88.80
2019-05-17T11:32:49.275Z,89.80
2019-05-17T11:35:57.972Z,90.90
2019-05-17T11:39:07.867Z,90.30
2019-05-17T11:42:26.635Z,90.10
2019-05-17T11:45:35.173Z,90.00
2019-05-17T11:48:43.782Z,88.00
2019-05-17T11:51:52.488Z,89.50
2019-05-17T11:55:01.106Z,86.90
2019-05-17T11:58:09.835Z,84.60
2019-05-17T12:01:18.462Z,84.60
2019-05-17T12:04:27.064Z,83.50
2019-05-17T12:07:45.891Z,82.50
2019-05-17T12:10:54.833Z,83.40
2019-05-17T12:14:03.486Z,81.60
2019-05-17T12:17:12.267Z,84.10
2019-05-17T12:20:23.535Z,85.40
2019-05-17T12:23:31.785Z,85.80
2019-05-17T12:26:50.744Z,84.70
2019-05-17T12:29:59.365Z,83.60
2019-05-17T12:33:08.481Z,83.70
2019-05-17T12:36:17.015Z,84.60
2019-05-17T12:39:25.901Z,82.20
2019-05-17T12:42:34.632Z,82.00
2019-05-17T12:45:58.043Z,79.80
2019-05-17T12:49:04.522Z,77.80
2019-05-17T12:52:13.151Z,76.40
2019-05-17T12:55:21.745Z,77.40
2019-05-17T12:58:30.409Z,75.50
2019-05-17T13:01:39.121Z,78.70
2019-05-17T13:04:47.739Z,79.40
2019-05-17T13:07:56.377Z,80.00
2019-05-17T13:11:05.254Z,80.30
2019-05-17T13:14:13.843Z,80.00
2019-05-17T13:17:22.568Z,79.00
2019-05-17T13:20:41.343Z,79.50
2019-05-17T13:23:49.968Z,80.60
2019-05-17T13:26:58.569Z,79.50
2019-05-17T13:30:10.383Z,79.80
2019-05-17T13:33:19.586Z,79.60
2019-05-17T13:36:28.158Z,80.10
2019-05-17T13:39:36.727Z,80.00
2019-05-17T13:42:45.479Z,79.70
2019-05-17T13:45:54.233Z,79.30
2019-05-17T13:49:04.779Z,78.80
2019-05-17T13:52:13.449Z,80.10
2019-05-17T13:55:22.122Z,80.00
2019-05-17T13:58:30.785Z,80.60
2019-05-17T14:01:49.537Z,79.40
2019-05-17T14:04:58.050Z,79.30
2019-05-17T14:08:06.656Z,82.30
2019-05-17T14:11:15.340Z,81.40
2019-05-17T14:14:24.007Z,80.40
2019-05-17T14:17:32.622Z,80.40
2019-05-17T14:20:41.160Z,80.70
2019-05-17T14:24:00.028Z,81.70
2019-05-17T14:27:08.549Z,82.10
2019-05-17T14:30:17.376Z,80.60
2019-05-17T14:33:25.985Z,79.90
2019-05-17T14:36:34.684Z,79.80
2019-05-17T14:39:43.320Z,79.50
2019-05-17T14:42:53.493Z,79.70
2019-05-17T14:46:02.150Z,79.40
2019-05-17T14:49:20.874Z,79.20
2019-05-17T14:52:29.527Z,78.00
2019-05-17T14:55:38.080Z,77.30
2019-05-17T14:58:46.828Z,77.40
2019-05-17T15:01:57.351Z,77.20
2019-05-17T15:05:06.565Z,78.20
2019-05-17T15:08:15.193Z,79.50
2019-05-17T15:11:23.868Z,79.00
2019-05-17T15:14:32.502Z,79.50
2019-05-17T15:17:41.160Z,80.60
2019-05-17T15:20:49.783Z,82.30
2019-05-17T15:23:58.424Z,81.20
2019-05-17T15:27:07.249Z,80.40
2019-05-17T15:30:16.795Z,80.40
2019-05-17T15:33:25.402Z,79.60
2019-05-17T15:36:34.153Z,80.60
2019-05-17T15:39:42.762Z,79.90
2019-05-17T15:42:51.282Z,81.00
2019-05-17T15:45:59.776Z,80.20
2019-05-17T15:49:18.764Z,81.00
2019-05-17T15:52:27.684Z,79.10
2019-05-17T15:55:46.707Z,79.20
2019-05-17T15:58:55.336Z,79.40
2019-05-17T16:02:04.264Z,79.90
2019-05-17T16:05:14.086Z,79.00
2019-05-17T16:08:23.129Z,78.30
2019-05-17T16:11:30.262Z,78.40
2019-05-17T16:14:38.883Z,78.80
2019-05-17T16:17:47.506Z,78.50
2019-05-17T16:20:56.159Z,79.90
2019-05-17T16:24:14.825Z,80.60
2019-05-17T16:27:23.383Z,80.20
2019-05-17T16:30:32.167Z,80.60
2019-05-17T16:33:40.716Z,81.10
2019-05-17T16:36:49.375Z,81.60
2019-05-17T16:39:57.992Z,81.20
2019-05-17T16:43:17.594Z,81.20
2019-05-17T16:46:17.130Z,81.00
2019-05-17T16:49:35.805Z,81.70
2019-05-17T16:52:44.585Z,81.20
2019-05-17T16:55:53.158Z,81.60
2019-05-17T16:59:01.971Z,81.30
2019-05-17T17:02:10.968Z,79.80
2019-05-17T17:05:19.533Z,80.50
2019-05-17T17:08:28.256Z,80.90
2019-05-17T17:11:36.781Z,81.20
2019-05-17T17:14:46.855Z,81.00
2019-05-17T17:17:55.519Z,81.30
2019-05-17T17:21:14.237Z,81.10
2019-05-17T17:24:22.850Z,81.60
2019-05-17T17:27:31.466Z,81.30
2019-05-17T17:30:40.168Z,82.00
2019-05-17T17:33:48.898Z,82.60
2019-05-17T17:36:57.402Z,82.30
2019-05-17T17:40:06.795Z,82.70
2019-05-17T17:43:16.366Z,82.40
2019-05-17T17:46:35.164Z,82.50
2019-05-17T17:49:44.082Z,81.90
2019-05-17T17:52:53.919Z,82.30
2019-05-17T17:56:02.644Z,82.60
2019-05-17T17:59:11.247Z,83.50
2019-05-17T18:02:19.874Z,83.30
2019-05-17T18:05:28.507Z,84.20
2019-05-17T18:08:47.228Z,84.70
2019-05-17T18:11:55.786Z,84.80
2019-05-17T18:15:06.506Z,84.80
2019-05-17T18:18:16.313Z,92.00
2019-05-17T18:21:25.003Z,93.40
2019-05-17T18:24:33.657Z,94.10
2019-05-17T18:27:42.290Z,94.70
2019-05-17T18:30:50.911Z,95.10
2019-05-17T18:34:09.746Z,95.70
2019-05-17T18:37:18.368Z,95.80
2019-05-17T18:40:27.037Z,95.90
2019-05-17T18:43:35.684Z,96.20
2019-05-17T18:46:44.346Z,96.60
2019-05-17T18:49:52.950Z,96.80
2019-05-17T18:53:05.060Z,97.00
2019-05-17T18:56:11.973Z,97.30
2019-05-17T18:59:30.642Z,97.30
2019-05-17T19:02:39.280Z,97.40
2019-05-17T19:05:47.911Z,97.40
2019-05-17T19:08:56.553Z,97.80
2019-05-17T19:12:05.269Z,97.80
2019-05-17T19:15:15.249Z,98.20
2019-05-17T19:18:24.062Z,98.20
2019-05-17T19:21:44.102Z,98.60
2019-05-17T19:24:52.892Z,98.90
2019-05-17T19:28:01.521Z,98.80
2019-05-17T19:31:10.023Z,98.90
2019-05-17T19:34:18.978Z,99.40
2019-05-17T19:37:27.517Z,99.50
2019-05-17T19:40:36.123Z,99.60
2019-05-17T19:43:54.922Z,99.60
2019-05-17T19:47:03.822Z,99.80
2019-05-17T19:50:12.702Z,99.60
2019-05-17T19:53:24.013Z,99.60
2019-05-17T19:56:31.173Z,99.80
2019-05-17T19:59:39.696Z,99.80
2019-05-17T20:02:48.233Z,99.90
2019-05-17T20:06:07.097Z,99.90
2019-05-17T20:09:15.927Z,99.90
2019-05-17T20:12:24.637Z,99.90
2019-05-17T20:15:34.898Z,99.90
2019-05-17T20:18:43.376Z,99.90
2019-05-17T20:21:51.869Z,99.90
2019-05-17T20:25:00.497Z,99.90
2019-05-17T20:28:09.162Z,99.90
2019-05-17T20:31:28.047Z,99.90
2019-05-17T20:34:36.688Z,99.90
2019-05-17T20:37:45.322Z,99.90
2019-05-17T20:40:54.110Z,99.90
2019-05-17T20:44:02.756Z,99.90
2019-05-17T20:47:11.300Z,99.90
2019-05-17T20:50:19.926Z,99.90
2019-05-17T20:53:28.525Z,99.90
2019-05-17T20:56:47.298Z,99.90
2019-05-17T20:59:55.827Z,99.90
2019-05-17T21:03:04.358Z,99.90
2019-05-17T21:06:13.145Z,99.90
2019-05-17T21:09:21.687Z,99.90
2019-05-17T21:12:30.209Z,99.90
2019-05-17T21:15:49.152Z,99.90
2019-05-17T21:18:57.685Z,99.90
2019-05-17T21:22:06.224Z,99.90
2019-05-17T21:25:15.255Z,99.90
2019-05-17T21:28:23.785Z,99.90
2019-05-17T21:31:32.388Z,99.90
2019-05-17T21:34:40.989Z,99.90
2019-05-17T21:37:49.575Z,99.90
2019-05-17T21:41:08.309Z,99.90
2019-05-17T21:44:16.945Z,99.90
2019-05-17T21:47:25.464Z,99.90
2019-05-17T21:50:33.999Z,99.90
2019-05-17T21:53:42.516Z,99.90
2019-05-17T21:56:51.211Z,99.90
2019-05-17T22:00:13.578Z,99.90
2019-05-17T22:03:22.156Z,99.90
2019-05-17T22:06:30.714Z,99.90
2019-05-17T22:09:39.265Z,99.90
2019-05-17T22:12:47.859Z,99.90
2019-05-17T22:15:56.525Z,99.90
2019-05-17T22:19:05.107Z,99.90
2019-05-17T22:22:23.732Z,99.90
2019-05-17T22:25:32.365Z,99.90
2019-05-17T22:28:40.883Z,99.90
2019-05-17T22:31:49.413Z,99.90
2019-05-17T22:34:58.044Z,99.90
2019-05-17T22:38:06.587Z,99.90
2019-05-17T22:41:25.434Z,99.90
2019-05-17T22:44:34.065Z,99.90
2019-05-17T22:47:42.721Z,99.90
2019-05-17T22:50:51.302Z,99.90
2019-05-17T22:53:59.908Z,99.90
2019-05-17T22:57:08.446Z,99.90
2019-05-17T23:00:17.248Z,99.90
2019-05-17T23:03:35.950Z,99.90
2019-05-17T23:06:44.688Z,99.90
2019-05-17T23:09:53.356Z,99.90
2019-05-17T23:13:02.009Z,99.90
2019-05-17T23:16:12.845Z,99.90
2019-05-17T23:19:21.359Z,99.90
2019-05-17T23:22:29.991Z,99.90
2019-05-17T23:25:38.503Z,99.90
2019-05-17T23:28:47.233Z,99.90
2019-05-17T23:31:55.862Z,99.90
2019-05-17T23:35:04.786Z,99.90
2019-05-17T23:38:13.426Z,99.90
2019-05-17T23:41:32.058Z,99.90
2019-05-17T23:44:40.667Z,99.90
2019-05-17T23:47:49.307Z,99.90
2019-05-17T23:50:57.920Z,99.90
2019-05-17T23:54:06.564Z,99.90
2019-05-17T23:57:15.082Z,99.90
